Time;durP1;ratioP1;P1;durP2;ratioP2;P2;SDS_P1;SDS_P2;PMS_P1;PMS_P2;Temp;Humidity;BMP_temperature;BMP_pressure;BME280_temperature;BME280_humidity;BME280_pressure;Samples;Min_cycle;Max_cycle;Signal;HPM_P1;HPM_P2
2023/03/08 00:00:47;;;;;;;0.00;0.00;;;6.40;99.90;;;;;;4999923;28;20021;-78
2023/03/08 00:03:15;;;;;;;0.00;0.00;;;6.40;99.90;;;;;;4989179;28;20157;-78
2023/03/08 00:05:41;;;;;;;0.00;0.00;;;6.40;99.90;;;;;;5010480;28;20018;-78
2023/03/08 00:08:09;;;;;;;0.00;0.00;;;6.50;99.90;;;;;;5006434;28;20036;-78
2023/03/08 00:10:36;;;;;;;0.08;0.08;;;6.50;99.90;;;;;;4988464;28;20026;-77
2023/03/08 00:13:03;;;;;;;0.00;0.00;;;6.40;99.90;;;;;;5001913;28;20125;-78
2023/03/08 00:15:31;;;;;;;0.00;0.00;;;6.50;99.90;;;;;;5008191;28;20057;-78
2023/03/08 00:17:57;;;;;;;0.00;0.00;;;6.50;99.90;;;;;;5004865;28;20030;-78
2023/03/08 00:20:24;;;;;;;0.00;0.00;;;6.50;99.90;;;;;;4991894;28;20434;-77
2023/03/08 00:22:50;;;;;;;;;;;6.50;99.90;;;;;;5009526;28;20033;-78
2023/03/08 00:25:26;;;;;;;0.00;0.00;;;6.50;99.90;;;;;;5012701;28;19997;-78
2023/03/08 00:27:52;;;;;;;0.00;0.00;;;6.50;99.90;;;;;;4990021;28;20045;-78
2023/03/08 00:30:18;;;;;;;0.00;0.00;;;6.40;99.90;;;;;;4988050;28;20018;-78
2023/03/08 00:32:46;;;;;;;0.00;0.00;;;6.40;99.90;;;;;;5004683;28;20030;-79
2023/03/08 00:35:15;;;;;;;0.00;0.00;;;6.40;99.90;;;;;;4988240;28;20026;-78
2023/03/08 00:37:41;;;;;;;0.00;0.00;;;6.40;99.90;;;;;;4993271;28;20021;-77
2023/03/08 00:40:10;;;;;;;0.00;0.00;;;6.40;99.90;;;;;;4991463;28;20014;-78
2023/03/08 00:42:36;;;;;;;0.00;0.00;;;6.40;99.90;;;;;;5005561;28;20032;-78
2023/03/08 00:45:07;;;;;;;0.00;0.00;;;6.40;99.90;;;;;;5006859;28;20359;-78
2023/03/08 00:47:34;;;;;;;0.43;0.43;;;6.30;99.90;;;;;;4994035;28;20855;-77
2023/03/08 00:50:00;;;;;;;0.00;0.00;;;6.30;99.90;;;;;;4984689;28;20650;-77
2023/03/08 00:52:32;;;;;;;0.00;0.00;;;6.30;99.90;;;;;;4992370;28;20801;-77
2023/03/08 00:55:00;;;;;;;1.35;1.02;;;6.30;99.90;;;;;;4998193;28;20018;-77
2023/03/08 00:57:26;;;;;;;0.00;0.00;;;6.30;99.90;;;;;;4994008;28;20029;-77
2023/03/08 00:59:56;;;;;;;0.00;0.00;;;6.30;99.90;;;;;;5002222;28;20837;-78
2023/03/08 01:02:33;;;;;;;0.00;0.00;;;6.30;99.90;;;;;;4986722;28;20759;-77
2023/03/08 01:05:01;;;;;;;0.00;0.00;;;6.30;99.60;;;;;;4986223;28;20104;-77
2023/03/08 01:07:29;;;;;;;0.00;0.00;;;6.40;99.30;;;;;;5001414;28;20021;-80
2023/03/08 01:09:58;;;;;;;0.90;0.90;;;6.40;99.10;;;;;;5008528;28;20029;-79
2023/03/08 01:12:31;;;;;;;0.00;0.00;;;6.30;99.10;;;;;;4988922;28;20033;-80
2023/03/08 01:14:58;;;;;;;0.00;0.00;;;6.30;99.20;;;;;;4994493;28;20018;-80
2023/03/08 01:17:24;;;;;;;0.00;0.00;;;6.20;99.20;;;;;;5003324;28;20040;-79
2023/03/08 01:19:50;;;;;;;0.00;0.00;;;6.30;99.10;;;;;;4980424;28;20034;-80
2023/03/08 01:22:16;;;;;;;0.00;0.00;;;6.20;99.20;;;;;;5006854;28;20021;-80
2023/03/08 01:24:49;;;;;;;0.00;0.00;;;6.20;99.40;;;;;;4989417;28;20053;-80
2023/03/08 01:27:16;;;;;;;0.00;0.00;;;6.20;99.50;;;;;;5011423;28;20025;-80
2023/03/08 01:29:44;;;;;;;1.02;0.15;;;6.20;99.50;;;;;;4990620;28;20026;-80
2023/03/08 01:32:11;;;;;;;0.00;0.00;;;6.10;99.60;;;;;;5001993;28;20391;-80
2023/03/08 01:34:45;;;;;;;0.00;0.00;;;6.20;99.60;;;;;;5008135;28;20056;-80
2023/03/08 01:37:14;;;;;;;0.00;0.00;;;6.10;99.70;;;;;;5004694;28;20105;-80
2023/03/08 01:39:40;;;;;;;0.00;0.00;;;6.10;99.90;;;;;;4988648;28;20076;-79
2023/03/08 01:42:09;;;;;;;;;;;6.00;99.90;;;;;;5009590;28;20375;-80
2023/03/08 01:44:53;;;;;;;0.00;0.00;;;6.00;99.90;;;;;;5005681;28;19959;-80
2023/03/08 01:47:29;;;;;;;0.03;0.03;;;6.10;99.90;;;;;;4989435;28;20018;-80
2023/03/08 01:50:00;;;;;;;0.00;0.00;;;6.00;99.90;;;;;;4989651;28;20109;-79
2023/03/08 01:52:40;;;;;;;0.00;0.00;;;6.00;99.90;;;;;;5000692;28;20029;-79
2023/03/08 01:55:12;;;;;;;0.00;0.00;;;6.00;99.90;;;;;;4982279;28;20696;-80
2023/03/08 01:57:44;;;;;;;0.00;0.00;;;5.90;99.90;;;;;;5006459;28;20537;-80
2023/03/08 02:00:18;;;;;;;0.00;0.00;;;5.90;99.90;;;;;;5011498;28;20030;-80
2023/03/08 02:02:50;;;;;;;0.00;0.00;;;5.90;99.90;;;;;;5007308;28;20141;-79
2023/03/08 02:05:17;;;;;;;0.00;0.00;;;5.90;99.90;;;;;;4990627;28;20379;-80
2023/03/08 02:07:47;;;;;;;;;;;5.90;99.90;;;;;;5007890;28;20057;-79
2023/03/08 02:10:13;;;;;;;0.00;0.00;;;6.00;99.90;;;;;;5005790;28;19936;-80
2023/03/08 02:12:41;;;;;;;0.30;0.30;;;5.90;99.90;;;;;;5008265;28;20436;-80
2023/03/08 02:15:12;;;;;;;0.00;0.00;;;6.00;99.90;;;;;;4997390;28;20475;-80
2023/03/08 02:17:40;;;;;;;0.00;0.00;;;6.00;99.90;;;;;;5005299;28;20026;-80
2023/03/08 02:20:25;;;;;;;0.00;0.00;;;6.00;99.90;;;;;;4986970;28;20026;-80
2023/03/08 02:22:52;;;;;;;0.00;0.00;;;6.10;99.90;;;;;;5004581;28;20079;-79
2023/03/08 02:25:23;;;;;;;0.00;0.00;;;6.00;99.90;;;;;;4988226;28;20060;-80
2023/03/08 02:27:51;;;;;;;0.00;0.00;;;6.00;99.90;;;;;;5006488;28;20127;-79
2023/03/08 02:30:23;;;;;;;0.00;0.00;;;6.00;99.90;;;;;;5003454;28;20038;-80
2023/03/08 02:32:48;;;;;;;0.00;0.00;;;6.00;99.90;;;;;;5004271;28;21612;-80
2023/03/08 02:35:15;;;;;;;0.00;0.00;;;6.00;99.90;;;;;;5004564;28;20069;-80
2023/03/08 02:37:42;;;;;;;0.00;0.00;;;6.00;99.90;;;;;;5010792;28;20032;-80
2023/03/08 02:40:10;;;;;;;0.00;0.00;;;6.00;99.90;;;;;;4989677;28;20085;-80
2023/03/08 02:42:36;;;;;;;0.00;0.00;;;6.00;99.90;;;;;;4987317;28;20025;-79
2023/03/08 02:45:03;;;;;;;0.00;0.00;;;6.00;99.90;;;;;;4991663;28;20884;-80
2023/03/08 02:47:29;;;;;;;0.00;0.00;;;6.00;99.90;;;;;;5006346;28;20022;-80
2023/03/08 02:49:55;;;;;;;0.00;0.00;;;5.90;99.90;;;;;;5012395;28;20033;-79
2023/03/08 02:52:21;;;;;;;0.00;0.00;;;5.90;99.90;;;;;;4989555;28;20852;-80
2023/03/08 02:54:55;;;;;;;0.00;0.00;;;5.90;99.90;;;;;;5007310;28;20033;-80
2023/03/08 02:57:21;;;;;;;0.00;0.00;;;5.90;99.90;;;;;;5004922;28;20029;-80
2023/03/08 02:59:52;;;;;;;0.47;0.30;;;5.90;99.90;;;;;;5013662;28;20040;-80
2023/03/08 03:02:32;;;;;;;0.00;0.00;;;5.80;99.90;;;;;;4985439;28;20033;-80
2023/03/08 03:05:05;;;;;;;0.00;0.00;;;5.80;99.90;;;;;;4991831;28;20029;-80
2023/03/08 03:07:34;;;;;;;0.00;0.00;;;5.70;99.90;;;;;;4996742;28;20417;-79
2023/03/08 03:10:05;;;;;;;0.00;0.00;;;5.70;99.90;;;;;;5005933;28;20498;-80
2023/03/08 03:12:32;;;;;;;0.00;0.00;;;5.70;99.90;;;;;;4999003;28;20467;-79
2023/03/08 03:14:57;;;;;;;0.00;0.00;;;5.70;99.90;;;;;;4989891;28;20033;-79
2023/03/08 03:17:38;;;;;;;0.00;0.00;;;5.60;99.90;;;;;;4987680;28;20034;-80
2023/03/08 03:20:08;;;;;;;0.00;0.00;;;5.60;99.90;;;;;;4991469;28;20062;-80
2023/03/08 03:22:35;;;;;;;0.00;0.00;;;5.60;99.90;;;;;;4986236;28;20068;-80
2023/03/08 03:25:02;;;;;;;0.00;0.00;;;5.60;99.90;;;;;;5014574;28;20030;-80
2023/03/08 03:27:30;;;;;;;0.00;0.00;;;5.60;99.90;;;;;;5000870;28;20510;-80
2023/03/08 03:29:57;;;;;;;0.00;0.00;;;5.60;99.90;;;;;;5011523;28;20030;-80
2023/03/08 03:32:23;;;;;;;0.00;0.00;;;5.60;99.90;;;;;;4988997;28;20049;-80
2023/03/08 03:34:49;;;;;;;0.00;0.00;;;5.60;99.90;;;;;;5017089;28;20034;-80
2023/03/08 03:37:16;;;;;;;1.20;1.17;;;5.70;99.90;;;;;;4993254;28;20022;-80
2023/03/08 03:39:49;;;;;;;0.00;0.00;;;5.80;99.90;;;;;;5008865;28;20367;-80
2023/03/08 03:42:25;;;;;;;0.00;0.00;;;5.90;99.90;;;;;;5004406;28;20549;-80
2023/03/08 03:44:51;;;;;;;0.00;0.00;;;5.90;99.90;;;;;;5008026;28;20478;-80
2023/03/08 03:47:17;;;;;;;0.00;0.00;;;5.90;99.90;;;;;;4991266;28;20032;-80
2023/03/08 03:49:49;;;;;;;0.00;0.00;;;5.90;99.90;;;;;;5005348;28;20571;-79
2023/03/08 03:52:15;;;;;;;0.00;0.00;;;5.80;99.90;;;;;;5004979;28;20021;-80
2023/03/08 03:54:41;;;;;;;0.00;0.00;;;5.80;99.90;;;;;;4991003;28;20028;-79
2023/03/08 03:57:13;;;;;;;0.00;0.00;;;5.80;99.90;;;;;;4990490;28;20075;-79
2023/03/08 03:59:43;;;;;;;0.00;0.00;;;5.80;99.90;;;;;;5005763;28;20472;-80
2023/03/08 04:02:14;;;;;;;0.00;0.00;;;5.90;99.90;;;;;;4991283;28;20423;-80
2023/03/08 04:04:43;;;;;;;0.00;0.00;;;5.80;99.90;;;;;;4991449;28;20025;-81
2023/03/08 04:07:11;;;;;;;0.00;0.00;;;5.70;99.90;;;;;;4990387;28;20018;-79
2023/03/08 04:09:44;;;;;;;0.00;0.00;;;5.80;99.90;;;;;;4990126;28;20476;-79
2023/03/08 04:12:10;;;;;;;0.00;0.00;;;5.80;99.90;;;;;;4988294;28;20108;-80
2023/03/08 04:14:39;;;;;;;0.00;0.00;;;5.80;99.90;;;;;;5008733;28;20431;-79
2023/03/08 04:17:05;;;;;;;0.00;0.00;;;5.70;99.90;;;;;;4984084;28;20142;-79
2023/03/08 04:19:32;;;;;;;0.00;0.00;;;5.70;99.90;;;;;;4991033;28;20545;-79
2023/03/08 04:22:06;;;;;;;;;;;5.70;99.90;;;;;;5009254;28;20046;-80
2023/03/08 04:24:32;;;;;;;0.00;0.00;;;5.70;99.90;;;;;;5009504;28;19906;-80
2023/03/08 04:26:58;;;;;;;;;;;5.60;99.90;;;;;;5006797;28;20037;-80
2023/03/08 04:29:25;;;;;;;0.00;0.00;;;5.60;99.90;;;;;;4984896;28;19905;-80
2023/03/08 04:31:58;;;;;;;0.00;0.00;;;5.60;99.90;;;;;;4991934;28;21526;-79
2023/03/08 04:34:26;;;;;;;0.00;0.00;;;5.60;99.90;;;;;;4984447;28;20026;-80
2023/03/08 04:36:59;;;;;;;0.00;0.00;;;5.60;99.90;;;;;;5006972;28;21010;-80
2023/03/08 04:39:24;;;;;;;0.00;0.00;;;5.50;99.90;;;;;;5004941;28;20029;-79
2023/03/08 04:41:51;;;;;;;0.00;0.00;;;5.50;99.90;;;;;;4989573;28;20939;-80
2023/03/08 04:44:17;;;;;;;0.00;0.00;;;5.50;99.90;;;;;;5008631;28;20018;-80
2023/03/08 04:46:43;;;;;;;0.00;0.00;;;5.50;99.90;;;;;;5007508;28;20475;-79
2023/03/08 04:49:10;;;;;;;0.00;0.00;;;5.40;99.90;;;;;;5002761;28;20539;-80
2023/03/08 04:51:37;;;;;;;;;;;5.40;99.90;;;;;;4982279;28;20109;-80
2023/03/08 04:54:03;;;;;;;0.00;0.00;;;5.40;99.90;;;;;;4981129;28;19964;-80
2023/03/08 04:56:30;;;;;;;0.00;0.00;;;5.30;99.90;;;;;;5004863;28;20013;-80
2023/03/08 04:58:56;;;;;;;0.00;0.00;;;5.20;99.90;;;;;;5003397;28;20029;-80
2023/03/08 05:01:23;;;;;;;1.08;0.47;;;5.20;99.90;;;;;;5010497;28;20377;-79
2023/03/08 05:03:52;;;;;;;0.00;0.00;;;5.20;99.90;;;;;;5002131;28;20548;-80
2023/03/08 05:06:19;;;;;;;0.00;0.00;;;5.10;99.90;;;;;;5003135;28;20037;-80
2023/03/08 05:08:45;;;;;;;0.00;0.00;;;5.20;99.90;;;;;;5001831;28;20103;-79
2023/03/08 05:11:21;;;;;;;;;;;5.10;99.90;;;;;;4985671;28;20076;-80
2023/03/08 05:13:47;;;;;;;0.00;0.00;;;5.10;99.90;;;;;;4999283;28;19913;-79
2023/03/08 05:16:13;;;;;;;0.00;0.00;;;5.10;99.90;;;;;;5001175;28;20061;-79
2023/03/08 05:18:38;;;;;;;0.00;0.00;;;5.10;99.90;;;;;;4991675;28;20131;-79
2023/03/08 05:21:10;;;;;;;0.00;0.00;;;5.10;99.90;;;;;;5011811;28;20052;-80
2023/03/08 05:23:38;;;;;;;0.00;0.00;;;5.00;99.90;;;;;;4990991;28;20014;-79
2023/03/08 05:26:11;;;;;;;0.00;0.00;;;5.00;99.90;;;;;;5003528;28;20155;-80
2023/03/08 05:28:37;;;;;;;0.00;0.00;;;5.00;99.90;;;;;;5006606;28;20030;-80
2023/03/08 05:31:04;;;;;;;0.00;0.00;;;5.00;99.90;;;;;;5004270;28;20037;-80
2023/03/08 05:33:31;;;;;;;0.00;0.00;;;5.10;99.90;;;;;;4985229;28;20113;-79
2023/03/08 05:35:59;;;;;;;0.00;0.00;;;5.10;99.90;;;;;;5003788;28;20072;-80
2023/03/08 05:38:31;;;;;;;0.00;0.00;;;5.10;99.90;;;;;;5002352;28;20391;-80
2023/03/08 05:41:16;;;;;;;0.00;0.00;;;5.00;99.90;;;;;;5006222;28;20348;-79
2023/03/08 05:43:42;;;;;;;0.00;0.00;;;5.10;99.90;;;;;;5004299;28;20025;-76
2023/03/08 05:46:14;;;;;;;0.00;0.00;;;5.10;99.90;;;;;;5006233;28;20028;-76
2023/03/08 05:48:44;;;;;;;0.00;0.00;;;5.00;99.90;;;;;;4983863;28;20516;-76
2023/03/08 05:51:14;;;;;;;0.00;0.00;;;5.00;99.90;;;;;;5010778;28;20211;-75
2023/03/08 05:53:48;;;;;;;0.00;0.00;;;5.00;99.90;;;;;;5005594;28;20656;-76
2023/03/08 05:56:20;;;;;;;0.00;0.00;;;5.00;99.90;;;;;;4989005;28;20025;-76
2023/03/08 05:58:47;;;;;;;0.00;0.00;;;5.20;99.90;;;;;;4997838;28;20053;-76
2023/03/08 06:01:25;;;;;;;0.00;0.00;;;6.10;99.90;;;;;;5001885;28;20021;-77
2023/03/08 06:03:59;;;;;;;0.00;0.00;;;7.40;99.90;;;;;;4990869;28;20104;-76
2023/03/08 06:06:31;;;;;;;0.00;0.00;;;8.60;98.80;;;;;;4992076;28;20100;-76
2023/03/08 06:08:57;;;;;;;0.43;0.43;;;9.80;95.00;;;;;;4982583;28;20037;-76
2023/03/08 06:11:40;;;;;;;0.00;0.00;;;10.90;91.20;;;;;;4978143;28;20057;-76
2023/03/08 06:14:05;;;;;;;0.00;0.00;;;12.20;82.90;;;;;;5005710;28;20107;-76
2023/03/08 06:16:39;;;;;;;0.00;0.00;;;13.20;76.00;;;;;;4983415;28;20776;-78
2023/03/08 06:19:05;;;;;;;0.00;0.00;;;14.20;70.40;;;;;;4981841;28;20149;-79
2023/03/08 06:21:30;;;;;;;0.00;0.00;;;14.80;64.60;;;;;;4986387;28;20543;-79
2023/03/08 06:23:56;;;;;;;0.00;0.00;;;14.60;62.00;;;;;;5011434;28;20076;-79
2023/03/08 06:26:25;;;;;;;0.00;0.00;;;14.20;61.60;;;;;;4986562;28;20268;-79
2023/03/08 06:28:52;;;;;;;0.00;0.00;;;14.10;61.90;;;;;;5008378;28;20030;-79
2023/03/08 06:31:20;;;;;;;0.00;0.00;;;14.80;61.10;;;;;;4990955;28;20310;-78
2023/03/08 06:33:48;;;;;;;0.00;0.00;;;15.40;59.10;;;;;;4985390;28;20044;-79
2023/03/08 06:36:21;;;;;;;0.00;0.00;;;16.20;57.90;;;;;;4990450;28;20176;-79
2023/03/08 06:38:48;;;;;;;0.05;0.05;;;17.10;54.80;;;;;;5000081;28;20057;-79
2023/03/08 06:41:15;;;;;;;0.00;0.00;;;18.10;51.90;;;;;;4986386;28;20017;-79
2023/03/08 06:43:48;;;;;;;0.00;0.00;;;18.40;50.90;;;;;;5007709;28;20053;-79
2023/03/08 06:46:17;;;;;;;0.10;0.10;;;19.20;48.90;;;;;;5005530;28;20509;-80
2023/03/08 06:48:46;;;;;;;0.00;0.00;;;19.70;48.70;;;;;;4993535;28;20471;-79
2023/03/08 06:51:19;;;;;;;0.00;0.00;;;19.90;47.50;;;;;;4992173;28;20022;-77
2023/03/08 06:53:52;;;;;;;0.00;0.00;;;20.20;46.10;;;;;;5006904;28;20673;-79
2023/03/08 06:56:28;;;;;;;0.10;0.10;;;19.90;46.60;;;;;;4992049;28;20041;-77
2023/03/08 06:58:55;;;;;;;0.00;0.00;;;20.30;46.20;;;;;;5001459;28;20022;-77
2023/03/08 07:01:22;;;;;;;0.00;0.00;;;20.90;45.30;;;;;;5008232;28;20269;-77
2023/03/08 07:03:52;;;;;;;0.10;0.10;;;21.10;43.80;;;;;;5009453;28;21967;-77
2023/03/08 07:06:26;;;;;;;0.00;0.00;;;21.80;43.50;;;;;;4988110;28;20068;-76
2023/03/08 07:08:53;;;;;;;0.00;0.00;;;21.90;43.20;;;;;;4990469;28;20034;-77
2023/03/08 07:11:19;;;;;;;0.00;0.00;;;21.80;42.30;;;;;;5007670;28;20250;-77
2023/03/08 07:13:46;;;;;;;0.00;0.00;;;21.70;42.10;;;;;;4994965;28;20116;-77
2023/03/08 07:16:18;;;;;;;1.20;0.20;;;21.00;42.30;;;;;;4989689;28;20018;-77
2023/03/08 07:18:44;;;;;;;0.00;0.00;;;21.90;43.20;;;;;;4989320;28;20038;-77
2023/03/08 07:21:11;;;;;;;0.00;0.00;;;22.70;41.60;;;;;;5008756;28;20034;-77
2023/03/08 07:23:39;;;;;;;0.08;0.08;;;23.60;40.40;;;;;;4990151;28;20018;-77
2023/03/08 07:26:05;;;;;;;0.00;0.00;;;23.90;39.40;;;;;;5004291;28;20022;-77
2023/03/08 07:28:34;;;;;;;0.00;0.00;;;23.90;39.50;;;;;;4990879;28;20021;-76
2023/03/08 07:30:59;;;;;;;0.13;0.10;;;22.90;39.50;;;;;;5005147;28;20033;-78
2023/03/08 07:33:25;;;;;;;;;;;23.20;40.00;;;;;;5006973;28;20026;-76
2023/03/08 07:36:02;;;;;;;0.00;0.00;;;24.00;39.20;;;;;;4992864;28;19912;-77
2023/03/08 07:38:28;;;;;;;0.10;0.10;;;24.60;38.20;;;;;;5008960;28;20037;-77
2023/03/08 07:40:58;;;;;;;;;;;25.90;37.60;;;;;;4989064;28;20368;-77
2023/03/08 07:43:23;;;;;;;0.00;0.00;;;26.60;36.80;;;;;;5005534;28;19958;-77
2023/03/08 07:45:52;;;;;;;0.00;0.00;;;27.50;36.40;;;;;;4983644;28;20320;-77
2023/03/08 07:48:18;;;;;;;0.00;0.00;;;27.40;35.40;;;;;;4989764;28;20112;-77
2023/03/08 07:50:46;;;;;;;0.00;0.00;;;27.80;35.00;;;;;;5007967;28;20112;-77
2023/03/08 07:53:14;;;;;;;0.00;0.00;;;28.10;35.00;;;;;;5006034;28;20034;-77
2023/03/08 07:55:47;;;;;;;0.00;0.00;;;28.30;34.40;;;;;;5008100;28;20095;-77
2023/03/08 07:58:13;;;;;;;0.00;0.00;;;28.60;34.00;;;;;;4993866;28;20026;-77
2023/03/08 08:00:38;;;;;;;0.00;0.00;;;29.30;33.60;;;;;;5003604;28;20422;-78
2023/03/08 08:03:10;;;;;;;0.00;0.00;;;29.60;33.40;;;;;;5005267;28;20025;-77
2023/03/08 08:05:38;;;;;;;0.00;0.00;;;29.60;33.40;;;;;;5004305;28;20044;-77
2023/03/08 08:08:12;;;;;;;0.00;0.00;;;28.70;32.90;;;;;;5000263;28;20109;-78
2023/03/08 08:10:39;;;;;;;0.00;0.00;;;28.50;33.60;;;;;;4983265;28;20029;-77
2023/03/08 08:13:07;;;;;;;0.00;0.00;;;28.00;33.60;;;;;;5012151;28;20064;-77
2023/03/08 08:15:40;;;;;;;0.20;0.10;;;28.30;33.40;;;;;;5003972;28;20014;-77
2023/03/08 08:18:11;;;;;;;0.00;0.00;;;28.20;33.70;;;;;;5004823;28;20022;-78
2023/03/08 08:20:43;;;;;;;0.00;0.00;;;27.60;33.40;;;;;;5010461;28;20109;-78
2023/03/08 08:23:25;;;;;;;0.00;0.00;;;27.00;33.60;;;;;;4995502;28;20025;-78
2023/03/08 08:25:56;;;;;;;0.00;0.00;;;26.90;34.00;;;;;;4993254;28;20048;-78
2023/03/08 08:28:22;;;;;;;0.00;0.00;;;26.20;34.90;;;;;;4993409;28;20026;-79
2023/03/08 08:31:16;;;;;;;0.00;0.00;;;25.90;34.70;;;;;;4992219;28;20032;-78
2023/03/08 08:33:44;;;;;;;0.00;0.00;;;25.00;34.40;;;;;;4982667;28;20026;-79
2023/03/08 08:36:13;;;;;;;0.00;0.00;;;22.80;34.70;;;;;;5007746;28;20033;-79
2023/03/08 08:38:45;;;;;;;0.00;0.00;;;21.90;35.90;;;;;;5001521;28;20024;-79
2023/03/08 08:41:18;;;;;;;0.00;0.00;;;21.00;37.20;;;;;;4979170;28;20033;-80
2023/03/08 08:43:46;;;;;;;0.10;0.10;;;21.40;37.40;;;;;;4995147;28;20068;-80
2023/03/08 08:46:14;;;;;;;0.25;0.25;;;21.80;38.00;;;;;;4989332;28;20076;-80
2023/03/08 08:48:47;;;;;;;0.00;0.00;;;22.30;37.10;;;;;;5009095;28;20045;-80
2023/03/08 08:51:16;;;;;;;0.00;0.00;;;22.80;36.70;;;;;;4985711;28;20017;-80
2023/03/08 08:53:46;;;;;;;0.00;0.00;;;22.50;37.20;;;;;;4993816;28;20021;-80
2023/03/08 08:56:22;;;;;;;0.00;0.00;;;22.90;36.90;;;;;;4990001;28;20036;-80
2023/03/08 08:58:50;;;;;;;0.00;0.00;;;21.30;36.50;;;;;;4989643;28;20494;-79
2023/03/08 09:01:31;;;;;;;0.00;0.00;;;19.60;38.40;;;;;;4985062;28;20021;-80
2023/03/08 09:03:58;;;;;;;0.00;0.00;;;18.70;39.70;;;;;;4992911;28;20696;-80
2023/03/08 09:06:25;;;;;;;0.15;0.15;;;18.80;40.20;;;;;;4989729;28;20026;-80
2023/03/08 09:08:55;;;;;;;0.00;0.00;;;18.60;40.70;;;;;;5003031;28;20092;-80
2023/03/08 09:11:25;;;;;;;0.00;0.00;;;19.50;40.80;;;;;;5000755;28;20043;-81
2023/03/08 09:13:56;;;;;;;0.00;0.00;;;20.70;39.60;;;;;;4989472;28;20017;-81
2023/03/08 09:16:25;;;;;;;0.00;0.00;;;20.50;39.10;;;;;;4986179;28;20566;-80
2023/03/08 09:18:55;;;;;;;0.00;0.00;;;20.50;38.60;;;;;;4991399;28;20336;-80
2023/03/08 09:21:24;;;;;;;0.00;0.00;;;19.80;39.40;;;;;;5011558;28;20467;-80
2023/03/08 09:23:50;;;;;;;0.00;0.00;;;18.10;39.90;;;;;;5006933;28;20029;-79
2023/03/08 09:26:16;;;;;;;0.00;0.00;;;17.00;41.90;;;;;;5006512;28;20430;-80
2023/03/08 09:28:44;;;;;;;0.00;0.00;;;16.70;42.90;;;;;;4988350;28;20030;-80
2023/03/08 09:31:17;;;;;;;0.00;0.00;;;16.90;43.50;;;;;;5008548;28;20494;-80
2023/03/08 09:33:52;;;;;;;0.00;0.00;;;16.90;43.40;;;;;;4986644;28;20391;-80
2023/03/08 09:36:24;;;;;;;0.00;0.00;;;17.30;43.10;;;;;;5009064;28;20498;-81
2023/03/08 09:38:55;;;;;;;0.00;0.00;;;17.60;42.80;;;;;;4986292;28;20030;-81
2023/03/08 09:41:39;;;;;;;0.00;0.00;;;17.70;42.50;;;;;;5004841;28;20103;-81
2023/03/08 09:44:44;;;;;;;0.00;0.00;;;17.80;42.60;;;;;;4981333;28;20014;-80
2023/03/08 09:47:48;;;;;;;0.00;0.00;;;17.50;43.10;;;;;;4987868;28;20017;-80
2023/03/08 09:50:30;;;;;;;0.00;0.00;;;17.00;43.30;;;;;;5007372;28;20025;-80
2023/03/08 09:53:09;;;;;;;0.00;0.00;;;16.80;44.40;;;;;;4986192;28;20045;-80
2023/03/08 09:55:43;;;;;;;0.00;0.00;;;16.60;43.90;;;;;;4980354;28;20022;-80
2023/03/08 09:58:43;;;;;;;0.00;0.00;;;15.70;44.90;;;;;;4986331;28;20033;-80
2023/03/08 10:01:48;;;;;;;0.00;0.00;;;15.60;46.00;;;;;;5008710;28;20025;-79
2023/03/08 10:04:33;;;;;;;0.00;0.00;;;15.10;46.80;;;;;;4985505;28;20021;-80
2023/03/08 10:07:29;;;;;;;0.00;0.00;;;14.20;48.00;;;;;;4992131;28;20032;-80
2023/03/08 10:10:17;;;;;;;0.35;0.30;;;13.80;49.10;;;;;;4986202;28;20076;-80
2023/03/08 10:13:08;;;;;;;0.00;0.00;;;13.30;49.80;;;;;;4996291;28;20022;-77
2023/03/08 10:15:41;;;;;;;0.00;0.00;;;12.70;50.80;;;;;;4974323;28;20475;-77
2023/03/08 10:18:33;;;;;;;0.00;0.00;;;12.30;51.40;;;;;;4990868;28;20037;-76
2023/03/08 10:21:01;;;;;;;0.00;0.00;;;11.90;52.40;;;;;;5008165;28;20030;-77
2023/03/08 10:23:37;;;;;;;0.00;0.00;;;12.00;52.80;;;;;;5006837;28;20071;-78
2023/03/08 10:26:14;;;;;;;0.00;0.00;;;11.90;52.60;;;;;;5009251;28;20022;-77
2023/03/08 10:28:43;;;;;;;0.00;0.00;;;11.80;53.00;;;;;;4982314;28;20024;-77
2023/03/08 10:31:27;;;;;;;0.00;0.00;;;11.60;54.00;;;;;;4994409;28;20026;-77
2023/03/08 10:34:01;;;;;;;0.00;0.00;;;11.50;54.90;;;;;;4995416;28;20025;-77
2023/03/08 10:36:30;;;;;;;0.00;0.00;;;11.30;55.40;;;;;;5012183;28;20568;-77
2023/03/08 10:39:06;;;;;;;0.00;0.00;;;11.30;55.70;;;;;;4989741;28;20022;-77
2023/03/08 10:41:40;;;;;;;0.15;0.15;;;11.20;56.00;;;;;;5006865;28;20439;-76
2023/03/08 10:44:14;;;;;;;0.00;0.00;;;11.20;56.50;;;;;;4996957;28;20563;-77
2023/03/08 10:46:48;;;;;;;0.47;0.47;;;11.00;56.90;;;;;;4986690;28;20022;-77
2023/03/08 10:49:17;;;;;;;0.00;0.00;;;11.10;57.80;;;;;;4987132;28;20022;-76
2023/03/08 10:51:59;;;;;;;0.00;0.00;;;11.10;58.20;;;;;;5005918;28;20025;-77
2023/03/08 10:54:27;;;;;;;0.00;0.00;;;11.30;58.50;;;;;;5006687;28;20022;-77
2023/03/08 10:57:01;;;;;;;0.00;0.00;;;11.30;58.30;;;;;;4987791;28;20026;-76
2023/03/08 10:59:34;;;;;;;0.00;0.00;;;11.50;58.50;;;;;;5003226;28;20037;-77
2023/03/08 11:02:13;;;;;;;0.15;0.13;;;11.40;58.70;;;;;;5005166;28;20032;-76
2023/03/08 11:04:53;;;;;;;0.00;0.00;;;11.40;59.10;;;;;;5005856;28;20017;-79
2023/03/08 11:07:28;;;;;;;0.05;0.05;;;11.40;59.90;;;;;;4990687;28;20467;-79
2023/03/08 11:10:26;;;;;;;0.00;0.00;;;11.60;60.10;;;;;;5003647;28;20699;-79
2023/03/08 11:13:03;;;;;;;;;;;12.00;59.70;;;;;;4978140;28;20080;-80
2023/03/08 11:15:33;;;;;;;0.00;0.00;;;12.40;59.00;;;;;;5012751;28;19980;-81
2023/03/08 11:18:18;;;;;;;0.00;0.00;;;12.60;58.70;;;;;;4990128;28;20036;-79
2023/03/08 11:20:50;;;;;;;0.00;0.00;;;12.90;58.20;;;;;;4992906;28;20041;-79
2023/03/08 11:23:53;;;;;;;0.00;0.00;;;13.00;58.20;;;;;;5006750;28;20085;-80
2023/03/08 11:26:39;;;;;;;0.00;0.00;;;13.00;58.70;;;;;;4987427;28;20022;-80
2023/03/08 11:29:36;;;;;;;0.05;0.05;;;13.10;59.20;;;;;;5010255;28;20472;-78
2023/03/08 11:32:33;;;;;;;0.10;0.10;;;12.80;59.80;;;;;;5003266;28;20029;-79
2023/03/08 11:35:24;;;;;;;0.00;0.00;;;12.30;61.10;;;;;;4991959;28;20117;-80
2023/03/08 11:38:21;;;;;;;0.00;0.00;;;12.30;61.90;;;;;;5008244;28;20260;-80
2023/03/08 11:40:56;;;;;;;0.00;0.00;;;12.30;61.80;;;;;;5010781;28;20264;-80
2023/03/08 11:43:47;;;;;;;0.30;0.30;;;12.20;61.70;;;;;;5007528;28;20029;-80
2023/03/08 11:46:34;;;;;;;0.00;0.00;;;12.00;61.90;;;;;;5004577;28;20478;-79
2023/03/08 11:49:36;;;;;;;2.72;0.17;;;11.80;62.70;;;;;;5004338;28;20021;-79
2023/03/08 11:52:28;;;;;;;0.00;0.00;;;11.60;62.90;;;;;;4985417;28;20026;-79
2023/03/08 11:55:30;;;;;;;0.17;0.17;;;11.70;64.30;;;;;;5011180;28;20491;-79
2023/03/08 11:58:32;;;;;;;0.17;0.17;;;11.60;64.50;;;;;;5002083;28;20021;-78
2023/03/08 12:01:14;;;;;;;0.00;0.00;;;11.60;65.20;;;;;;4972847;28;20042;-79
2023/03/08 12:03:48;;;;;;;0.40;0.40;;;11.50;65.40;;;;;;4988207;28;20665;-80
2023/03/08 12:06:28;;;;;;;0.00;0.00;;;11.20;66.40;;;;;;5006118;28;20479;-79
2023/03/08 12:09:12;;;;;;;0.00;0.00;;;11.10;67.20;;;;;;5009294;28;20120;-79
2023/03/08 12:11:42;;;;;;;0.00;0.00;;;11.20;67.90;;;;;;4990734;28;20033;-79
2023/03/08 12:14:50;;;;;;;0.00;0.00;;;11.10;68.30;;;;;;4989559;28;20051;-78
2023/03/08 12:17:21;;;;;;;0.00;0.00;;;11.10;69.80;;;;;;4955805;28;20037;-79
2023/03/08 12:19:49;;;;;;;2.67;2.33;;;11.10;70.20;;;;;;5007474;28;20033;-81
2023/03/08 12:22:24;;;;;;;0.00;0.00;;;10.90;71.60;;;;;;4989597;28;20021;-79
2023/03/08 12:25:13;;;;;;;0.00;0.00;;;10.70;73.20;;;;;;4989316;28;20029;-79
2023/03/08 12:27:52;;;;;;;0.00;0.00;;;10.70;75.10;;;;;;4986993;28;20018;-79
2023/03/08 12:30:49;;;;;;;0.00;0.00;;;10.80;76.90;;;;;;4994324;28;20029;-78
2023/03/08 12:33:17;;;;;;;0.00;0.00;;;11.00;78.10;;;;;;4982599;28;20120;-79
2023/03/08 12:36:06;;;;;;;0.45;0.10;;;10.80;79.70;;;;;;4990548;28;20022;-79
2023/03/08 12:39:04;;;;;;;0.00;0.00;;;10.70;82.70;;;;;;4980828;28;20444;-79
2023/03/08 12:41:31;;;;;;;0.00;0.00;;;10.70;84.80;;;;;;5009139;28;20032;-79
2023/03/08 12:44:20;;;;;;;0.00;0.00;;;10.70;87.60;;;;;;5004588;28;20026;-77
2023/03/08 12:46:57;;;;;;;0.45;0.45;;;10.50;90.70;;;;;;5001358;28;20022;-79
2023/03/08 12:49:39;;;;;;;0.00;0.00;;;10.50;92.70;;;;;;5004140;28;20034;-80
2023/03/08 12:52:27;;;;;;;0.03;0.03;;;10.40;94.60;;;;;;4988288;28;20837;-79
2023/03/08 12:55:14;;;;;;;0.05;0.05;;;10.40;96.20;;;;;;4991783;28;20037;-78
2023/03/08 12:57:53;;;;;;;0.00;0.00;;;10.40;97.60;;;;;;4987142;28;20025;-79
2023/03/08 13:00:30;;;;;;;0.00;0.00;;;10.30;98.30;;;;;;4985398;28;20464;-79
2023/03/08 13:03:14;;;;;;;0.00;0.00;;;10.20;99.20;;;;;;4996580;28;20616;-78
2023/03/08 13:05:51;;;;;;;0.00;0.00;;;10.20;99.90;;;;;;4999421;28;20022;-79
2023/03/08 13:08:43;;;;;;;0.10;0.10;;;10.10;99.90;;;;;;4987275;28;20743;-80
2023/03/08 13:11:15;;;;;;;0.00;0.00;;;10.10;99.90;;;;;;4981739;28;20029;-78
2023/03/08 13:13:50;;;;;;;0.00;0.00;;;10.20;99.90;;;;;;4996804;28;20018;-78
2023/03/08 13:16:30;;;;;;;0.00;0.00;;;10.10;99.90;;;;;;5007476;28;20022;-79
2023/03/08 13:19:15;;;;;;;0.00;0.00;;;10.30;99.90;;;;;;5004317;28;20022;-79
2023/03/08 13:22:07;;;;;;;1.02;1.02;;;10.40;99.90;;;;;;5002664;28;20021;-79
2023/03/08 13:25:00;;;;;;;0.17;0.17;;;10.40;99.90;;;;;;5005024;28;20077;-79